Flight Track Log - Related Links

Times and Time Zones

All times are in EDT time to prevent confusion due to time zone crossing. See the AWE1693 flight status page for this flight to view local times or setup timezone preferences in your user account.

Time Position Orientation Groundspeed Altitude Reporting Facility
EDT Latitude Longitude Course Direction KTS MPH feet Rate Location/Type
Sat 11:52:33 AM 35.2353 -80.9594 192° South 161 185 1,900  Level Atlanta Center
Sat 11:53:03 AM 35.2544 -80.9714 333° Northwest 164 189 2,600 1,744 Climbing Atlanta Center
Sat 11:53:59 AM 35.2931 -81.0158 317° Northwest 227 261 4,400 2,359 Climbing Atlanta Center
Sat 11:55:00 AM 34.8655 -81.0167 180° South  Level FlightAware Approximate
Sat 11:55:00 AM 35.2847 -81.1078 264° West 284 327 7,200  Level Atlanta Center
Sat 11:55:32 AM 35.2794 -81.1461 260° West 283 326 7,900 717 Climbing Atlanta Center
Sat 11:56:00 AM 34.7420 -81.0407 190° South  Level FlightAware Approximate
Sat 11:56:32 AM 35.2417 -81.2261 240° Southwest 299 344 8,300  Level Atlanta Center
Sat 11:57:00 AM 34.6326 -81.0835 192° South  Level FlightAware Approximate
Sat 11:57:03 AM 35.1936 -81.2253 179° South 293 337 10,100  Level Atlanta Center
Sat 11:58:32 AM 35.0842 -81.1883 165° South 302 348 13,500 2,376 Climbing Atlanta Center
Sat 11:59:32 AM 35.0014 -81.1253 148° Southeast 334 384 16,000 2,534 Climbing Atlanta Center
Sat 12:01:13 PM 34.8658 -81.0381 152° Southeast 332 382 20,300 2,161 Climbing Jacksonville Center
Sat 12:02:13 PM 34.7639 -81.0503 186° South 311 358 21,800 1,300 Climbing Jacksonville Center
Sat 12:03:13 PM 34.6619 -81.0803 194° South 347 399 22,900 1,100 Climbing Jacksonville Center
Sat 12:04:13 PM 34.5561 -81.1078 192° South 382 440 24,000 1,450 Climbing Jacksonville Center
Sat 12:05:13 PM 34.4458 -81.1325 190° South 396 456 25,800 1,500 Climbing Jacksonville Center
Sat 12:06:13 PM 34.3356 -81.1575 191° South 409 471 27,000 1,100 Climbing Jacksonville Center
Sat 12:07:13 PM 34.2358 -81.1769 189° South 409 471 28,000 1,150 Climbing Jacksonville Center
Sat 12:08:13 PM 34.1214 -81.2019 190° South 414 476 29,300 1,300 Climbing Jacksonville Center
Sat 12:09:13 PM 34.0028 -81.2292 191° South 428 493 30,600 1,300 Climbing Jacksonville Center
Sat 12:10:13 PM 33.8864 -81.2564 191° South 428 493 31,900 1,400 Climbing Jacksonville Center
Sat 12:11:13 PM 33.7697 -81.2836 191° South 428 493 33,400 1,450 Climbing Jacksonville Center
Sat 12:12:13 PM 33.6428 -81.3133 191° South 428 493 34,800 1,200 Climbing Jacksonville Center
Sat 12:13:13 PM 33.5283 -81.3428 192° South 428 493 35,800 600 Climbing Jacksonville Center
Sat 12:14:13 PM 33.4244 -81.3619 189° South 428 493 36,000 100 Climbing Jacksonville Center
Sat 12:15:13 PM 33.3078 -81.3889 191° South 428 493 36,000  Level Jacksonville Center
Sat 12:16:13 PM 33.1911 -81.4156 191° South 428 493 36,000  Level Jacksonville Center
Sat 12:17:13 PM 33.0747 -81.4425 191° South 428 493 36,000  Level Jacksonville Center
Sat 12:18:13 PM 32.9667 -81.4911 201° Southwest 423 487 36,000  Level Jacksonville Center
Sat 12:19:13 PM 32.8544 -81.5375 199° South 423 487 36,000  Level Jacksonville Center
Sat 12:20:13 PM 32.7444 -81.5883 201° Southwest 423 487 36,000  Level Jacksonville Center
Sat 12:21:13 PM 32.6239 -81.6419 201° Southwest 424 488 36,000  Level Jacksonville Center
Sat 12:22:13 PM 32.5261 -81.6853 200° South 417 480 36,000  Level Jacksonville Center
Sat 12:23:13 PM 32.4056 -81.7336 199° South 424 488 36,000  Level Jacksonville Center
Sat 12:24:13 PM 32.3014 -81.7569 191° South 429 494 36,000  Level Jacksonville Center
Sat 12:25:13 PM 32.1722 -81.7881 192° South 434 499 36,000  Level Jacksonville Center
Sat 12:26:13 PM 32.0533 -81.8142 191° South 429 494 36,000  Level Jacksonville Center
Sat 12:27:13 PM 31.9514 -81.8347 190° South 429 494 36,000  Level Jacksonville Center
Sat 12:28:13 PM 31.8200 -81.8656 191° South 429 494 36,000  Level Jacksonville Center
Sat 12:29:13 PM 31.7158 -81.8911 192° South 429 494 36,000  Level Jacksonville Center
Sat 12:30:13 PM 31.5867 -81.9169 190° South 429 494 36,000  Level Jacksonville Center
Sat 12:31:13 PM 31.4697 -81.9450 192° South 429 494 36,000 -50 Level Jacksonville Center
Sat 12:32:13 PM 31.3511 -81.9756 192° South 429 494 35,900  Descending Jacksonville Center
Sat 12:33:13 PM 31.2322 -81.9983 189° South 429 494 36,000 50 Climbing Jacksonville Center
Sat 12:34:13 PM 31.1156 -82.0264 192° South 429 494 36,000  Level Jacksonville Center
Sat 12:35:13 PM 30.9967 -82.0539 191° South 429 494 36,000  Level Jacksonville Center
Sat 12:36:13 PM 30.8778 -82.0769 189° South 429 494 36,000 -50 Level Jacksonville Center
Sat 12:37:13 PM 30.7589 -82.1044 191° South 429 494 35,900 -50 Descending Jacksonville Center
Sat 12:38:13 PM 30.6400 -82.1319 191° South 429 494 35,900  Level Jacksonville Center
Sat 12:39:13 PM 30.5358 -82.1472 187° South 429 494 35,900 50 Level Jacksonville Center
Sat 12:40:13 PM 30.4128 -82.1772 192° South 434 499 36,000 -50 Climbing Jacksonville Center
Sat 12:41:13 PM 30.2917 -82.2022 190° South 439 505 35,800 -500 Descending Jacksonville Center
Sat 12:42:13 PM 30.1708 -82.2294 191° South 444 511 35,000 -400 Descending Jacksonville Center
Sat 12:43:13 PM 30.0561 -82.2542 191° South 444 511 35,000  Level Jacksonville Center
Sat 12:44:13 PM 29.9311 -82.2861 192° South 451 519 35,000 -1,050 Level Jacksonville Center
Sat 12:45:13 PM 29.8142 -82.3108 190° South 445 512 32,900 -2,700 Descending Jacksonville Center
Sat 12:46:13 PM 29.6933 -82.3356 190° South 445 512 29,600 -2,950 Descending Jacksonville Center
Sat 12:47:13 PM 29.5681 -82.3531 187° South 450 518 27,000 -1,300 Descending Jacksonville Center
Sat 12:48:13 PM 29.4386 -82.3322 172° South 455 524 27,000 -200 Level Jacksonville Center
Sat 12:49:13 PM 29.3153 -82.2994 167° South 460 529 26,600 -1,050 Descending Jacksonville Center
Sat 12:50:13 PM 29.1900 -82.2742 170° South 465 535 24,900 -2,850 Descending Jacksonville Center
Sat 12:51:13 PM 29.0606 -82.2703 178° South 465 535 20,900 -3,800 Descending Jacksonville Center
Sat 12:52:13 PM 28.9372 -82.2661 178° South 460 529 17,300 -2,730 Descending Jacksonville Center
Sat 12:54:22 PM 28.7000 -82.2833 184° South 328 377 12,300 -2,140 Descending Tampa TRACON
Sat 12:55:04 PM 28.6500 -82.3167 210° Southwest 300 345 11,200 -650 Descending Tampa TRACON
Sat 12:56:22 PM 28.5500 -82.3667 204° Southwest 291 335 11,000 -600 Descending Tampa TRACON
Sat 12:57:04 PM 28.5000 -82.3833 196° South 288 331 10,000 -1,778 Descending Tampa TRACON
Sat 12:58:10 PM 28.4167 -82.4167 199° South 282 325 7,800 -2,000 Descending Tampa TRACON
Sat 12:59:10 PM 28.3500 -82.4500 204° Southwest 276 318 5,800 -2,050 Descending Tampa TRACON
Sat 01:00:10 PM 28.2833 -82.4833 204° Southwest 268 308 3,700 -1,400 Descending Tampa TRACON
Sat 01:01:10 PM 28.2167 -82.5167 204° Southwest 240 276 3,000 -700 Descending Tampa TRACON

Login

Don't have an account? Register now (free) for customized features, flight alerts, and more!